createdAt,value
2022-09-07T00:06:31.421Z,22.90
2022-09-07T00:16:36.100Z,22.80
2022-09-07T00:26:41.656Z,22.70
2022-09-07T00:36:45.417Z,22.70
2022-09-07T00:46:50.570Z,22.80
2022-09-07T00:56:55.351Z,22.80
2022-09-07T01:07:01.141Z,22.90
2022-09-07T01:17:12.118Z,22.80
2022-09-07T01:27:58.801Z,22.80
2022-09-07T01:38:11.096Z,22.70
2022-09-07T01:48:18.948Z,22.60
2022-09-07T01:58:26.739Z,22.60
2022-09-07T02:08:37.648Z,22.70
2022-09-07T02:18:46.621Z,22.80
2022-09-07T02:28:52.099Z,23.20
2022-09-07T02:38:55.835Z,23.40
2022-09-07T02:49:13.206Z,23.40
2022-09-07T02:59:28.445Z,23.40
2022-09-07T03:09:38.752Z,23.10
2022-09-07T03:19:42.539Z,23.10
2022-09-07T03:29:47.620Z,23.00
2022-09-07T03:39:51.544Z,23.20
2022-09-07T03:49:56.704Z,23.20
2022-09-07T04:00:00.442Z,23.20
2022-09-07T04:10:05.999Z,23.00
2022-09-07T04:20:10.749Z,22.70
2022-09-07T04:30:16.174Z,22.50
2022-09-07T04:40:20.027Z,22.40
2022-09-07T04:50:25.781Z,22.20
2022-09-07T05:00:29.498Z,22.40
2022-09-07T05:10:34.848Z,22.20
2022-09-07T05:20:38.564Z,22.30
2022-09-07T05:41:13.084Z,22.20
2022-09-07T05:51:18.451Z,22.10
2022-09-07T06:01:22.244Z,22.20
2022-09-07T06:11:28.183Z,22.50
2022-09-07T06:21:31.883Z,22.90
2022-09-07T06:42:01.157Z,23.80
2022-09-07T06:52:06.607Z,25.00
2022-09-07T07:02:13.404Z,25.50
2022-09-07T07:32:47.131Z,26.30
2022-09-07T07:42:50.844Z,26.40
2022-09-07T08:03:19.790Z,26.70
2022-09-07T08:13:24.855Z,27.00
2022-09-07T08:23:28.963Z,27.20
2022-09-07T08:33:35.583Z,27.30
2022-09-07T08:43:50.957Z,27.50
2022-09-07T08:53:56.343Z,27.50
2022-09-07T09:04:16.613Z,27.80
2022-09-07T09:24:38.884Z,27.40
2022-09-07T09:35:02.746Z,28.00
2022-09-07T09:45:14.736Z,28.40
2022-09-07T09:55:35.390Z,28.20
2022-09-07T10:05:42.862Z,28.10
2022-09-07T10:15:53.203Z,28.80
2022-09-07T10:25:57.166Z,29.20
2022-09-07T10:36:09.060Z,29.10
2022-09-07T10:57:05.386Z,30.20
2022-09-07T11:07:21.922Z,30.00
2022-09-07T11:17:31.147Z,30.00
2022-09-07T11:27:41.207Z,30.60
2022-09-07T11:37:54.770Z,30.60
2022-09-07T11:48:02.925Z,30.80
2022-09-07T11:58:27.405Z,31.30
2022-09-07T12:08:44.860Z,31.80
2022-09-07T12:19:28.428Z,31.70
2022-09-07T12:29:32.929Z,31.90
2022-09-07T12:39:40.458Z,32.20
2022-09-07T12:50:10.162Z,33.50
2022-09-07T13:00:20.177Z,32.10
2022-09-07T13:10:31.831Z,32.30
2022-09-07T13:20:40.621Z,33.10
2022-09-07T13:31:00.388Z,31.50
2022-09-07T13:41:09.340Z,30.60
2022-09-07T13:51:19.017Z,32.30
2022-09-07T14:01:26.625Z,34.70
2022-09-07T14:11:39.325Z,34.70
2022-09-07T14:21:54.701Z,36.10
2022-09-07T14:31:59.239Z,34.00
2022-09-07T14:42:05.661Z,34.30
2022-09-07T14:52:17.301Z,31.90
2022-09-07T15:02:40.329Z,30.60
2022-09-07T15:12:44.859Z,30.60
2022-09-07T15:22:50.115Z,30.20
2022-09-07T15:32:53.924Z,30.60
2022-09-07T15:42:59.863Z,32.40
2022-09-07T15:53:04.130Z,30.60
2022-09-07T16:03:09.812Z,30.40
2022-09-07T16:13:16.749Z,30.20
2022-09-07T16:23:22.401Z,30.30
2022-09-07T16:33:33.006Z,30.10
2022-09-07T16:43:41.054Z,29.80
2022-09-07T16:53:45.135Z,29.80
2022-09-07T17:03:50.997Z,29.60
2022-09-07T17:13:57.238Z,29.00
2022-09-07T17:24:04.225Z,28.50
2022-09-07T17:34:08.821Z,28.40
2022-09-07T17:44:14.102Z,28.30
2022-09-07T17:54:19.041Z,28.10
2022-09-07T18:04:24.887Z,28.10
2022-09-07T18:14:30.356Z,27.90
2022-09-07T18:24:36.840Z,27.80
2022-09-07T18:34:41.574Z,27.60
2022-09-07T18:55:11.657Z,27.60
2022-09-07T19:15:40.920Z,27.50
2022-09-07T19:25:45.961Z,27.50
2022-09-07T19:35:49.792Z,27.50
2022-09-07T19:45:55.321Z,27.30
2022-09-07T19:56:04.905Z,27.00
2022-09-07T20:06:11.691Z,26.80
2022-09-07T20:16:17.067Z,26.40
2022-09-07T20:26:23.763Z,26.40
2022-09-07T20:36:27.550Z,26.20
2022-09-07T20:46:33.141Z,26.00
2022-09-07T20:56:37.078Z,26.30
2022-09-07T21:06:42.429Z,26.10
2022-09-07T21:16:46.236Z,26.00
2022-09-07T21:26:52.089Z,25.90
2022-09-07T21:36:55.859Z,25.80
2022-09-07T21:47:00.992Z,25.70
2022-09-07T21:57:05.071Z,25.70
2022-09-07T22:07:10.221Z,25.60
2022-09-07T22:17:14.526Z,25.50
2022-09-07T22:27:19.686Z,25.50
2022-09-07T22:37:23.398Z,25.30
2022-09-07T22:47:28.725Z,25.40
2022-09-07T22:57:32.500Z,25.50
2022-09-07T23:07:37.752Z,25.40
2022-09-07T23:17:41.474Z,25.60
2022-09-07T23:27:46.724Z,25.60
2022-09-07T23:37:50.718Z,25.60
2022-09-07T23:47:56.075Z,25.60
2022-09-07T23:57:59.719Z,25.70
